KSGF/SGF METAR and TAF weather

Enter ICAO airport designator
Station Type Date Time Source
KSGF METAR 2023/02/04 01:52 UTC NOAA

KSGF 040152Z 17010KT 10SM CLR 01/M12 A3040 RMK AO2 SLP309 T00111122


Station Type Date Time Source
KSGF Decoded METAR 2023/02/04 01:52 UTC NOAA

SPRINGFIELD-BRANSON NATIONAL, MO, United States (KSGF) 37-14N 93-23W 389M
Feb 03, 2023 - 08:52 PM EST / 2023.02.04 0152 UTC
Wind: from the S (170 degrees) at 12 MPH (10 KT):0
Visibility: 10 mile(s):0
Sky conditions: clear
Temperature: 34.0 F (1.1 C)
Windchill: 24 F (-4 C):1
Dew Point: 10.0 F (-12.2 C)
Relative Humidity: 36%
Pressure (altimeter): 30.4 in. Hg (1029 hPa)
ob: KSGF 040152Z 17010KT 10SM CLR 01/M12 A3040 RMK AO2 SLP309 T00111122
cycle: 2

Station Type Date Time Source
KSGF TAF 2023/02/03 18:36 UTC NOAA

TAF KSGF 031732Z 0318/0418 VRB03KT P6SM SKC
FM032100 18005KT P6SM SKC
FM040500 19012KT P6SM SCT250 WS016/24045KT
FM041700 21020G31KT P6SM BKN240

Example: see airport list